Littleton, Illinois
Current Conditions -  °F | °C
As of 8:15 AM on Monday 24 Nov 2014 (Local Time) from KMQB Reporting Station
Overcast Overcast  
Wind Chill: 18°   Ceiling: 1300
Heat Index: 32°   Visibility: 7mi
Dew Point: 30°   Wind: 26mph
Humidity: 93%   Direction: 280°W
Pressure: 29.45"   Gusts: 37mph
Location:  40.23°N, 90.62°W
Report Text: KMQB 241415Z AUTO 28023G32KT 7SM OVC013 00/M01 A2945 RMK AO2 T00001010
Loading
Personal Weather Stations






























Interactive Weather Map New forecast layout! Learn more

10-Day Weather Forecast

Advertisements
Track Severe Weather on mobile